sensor_id;sensor_type;location;lat;lon;timestamp;temperature;humidity
39969;DHT22;25648;47.808;19.004;2022-09-03T00:00:26;23.90;57.70
39969;DHT22;25648;47.808;19.004;2022-09-03T00:03:36;23.90;57.60
39969;DHT22;25648;47.808;19.004;2022-09-03T00:13:43;23.50;58.60
39969;DHT22;25648;47.808;19.004;2022-09-03T00:16:12;23.60;58.10
39969;DHT22;25648;47.808;19.004;2022-09-03T00:18:46;23.70;57.70
39969;DHT22;25648;47.808;19.004;2022-09-03T00:21:17;23.70;57.50
39969;DHT22;25648;47.808;19.004;2022-09-03T00:23:47;23.80;57.40
39969;DHT22;25648;47.808;19.004;2022-09-03T00:26:24;23.70;57.50
39969;DHT22;25648;47.808;19.004;2022-09-03T00:31:31;23.80;57.50
39969;DHT22;25648;47.808;19.004;2022-09-03T00:34:20;23.80;57.40
39969;DHT22;25648;47.808;19.004;2022-09-03T00:36:48;23.80;57.30
39969;DHT22;25648;47.808;19.004;2022-09-03T00:39:24;23.70;57.80
39969;DHT22;25648;47.808;19.004;2022-09-03T00:50:29;23.40;58.10
39969;DHT22;25648;47.808;19.004;2022-09-03T01:01:09;23.30;58.00
39969;DHT22;25648;47.808;19.004;2022-09-03T01:03:50;23.30;57.90
39969;DHT22;25648;47.808;19.004;2022-09-03T01:06:28;23.30;58.20
39969;DHT22;25648;47.808;19.004;2022-09-03T01:09:06;23.20;58.20
39969;DHT22;25648;47.808;19.004;2022-09-03T01:11:58;23.30;58.10
39969;DHT22;25648;47.808;19.004;2022-09-03T01:14:46;23.30;58.20
39969;DHT22;25648;47.808;19.004;2022-09-03T01:31:13;23.20;57.90
39969;DHT22;25648;47.808;19.004;2022-09-03T01:39:02;23.00;57.90
39969;DHT22;25648;47.808;19.004;2022-09-03T01:45:02;22.90;58.50
39969;DHT22;25648;47.808;19.004;2022-09-03T01:53:02;22.10;60.50
39969;DHT22;25648;47.808;19.004;2022-09-03T01:55:49;22.10;60.70
39969;DHT22;25648;47.808;19.004;2022-09-03T01:58:29;22.30;59.70
39969;DHT22;25648;47.808;19.004;2022-09-03T02:01:02;22.50;58.90
39969;DHT22;25648;47.808;19.004;2022-09-03T02:03:41;22.50;59.10
39969;DHT22;25648;47.808;19.004;2022-09-03T02:06:10;22.60;58.90
39969;DHT22;25648;47.808;19.004;2022-09-03T02:08:36;22.70;58.80
39969;DHT22;25648;47.808;19.004;2022-09-03T02:11:04;22.70;58.60
39969;DHT22;25648;47.808;19.004;2022-09-03T02:13:38;22.80;58.50
39969;DHT22;25648;47.808;19.004;2022-09-03T02:16:27;22.90;58.20
39969;DHT22;25648;47.808;19.004;2022-09-03T02:18:58;23.00;58.10
39969;DHT22;25648;47.808;19.004;2022-09-03T02:21:28;23.00;57.90
39969;DHT22;25648;47.808;19.004;2022-09-03T02:23:56;22.90;58.00
39969;DHT22;25648;47.808;19.004;2022-09-03T02:26:23;22.80;57.90
39969;DHT22;25648;47.808;19.004;2022-09-03T02:28:50;22.80;58.10
39969;DHT22;25648;47.808;19.004;2022-09-03T02:31:17;22.70;59.00
39969;DHT22;25648;47.808;19.004;2022-09-03T02:33:45;22.60;58.40
39969;DHT22;25648;47.808;19.004;2022-09-03T02:36:14;22.40;58.60
39969;DHT22;25648;47.808;19.004;2022-09-03T02:38:42;22.30;59.10
39969;DHT22;25648;47.808;19.004;2022-09-03T02:41:09;22.30;59.20
39969;DHT22;25648;47.808;19.004;2022-09-03T02:43:49;22.30;58.90
39969;DHT22;25648;47.808;19.004;2022-09-03T02:46:20;22.40;58.70
39969;DHT22;25648;47.808;19.004;2022-09-03T02:48:47;22.40;59.20
39969;DHT22;25648;47.808;19.004;2022-09-03T02:51:12;22.20;60.00
39969;DHT22;25648;47.808;19.004;2022-09-03T02:53:38;22.20;60.00
39969;DHT22;25648;47.808;19.004;2022-09-03T02:56:04;22.40;59.10
39969;DHT22;25648;47.808;19.004;2022-09-03T02:58:30;22.40;58.20
39969;DHT22;25648;47.808;19.004;2022-09-03T03:00:58;22.40;58.40
39969;DHT22;25648;47.808;19.004;2022-09-03T03:03:24;22.40;58.30
39969;DHT22;25648;47.808;19.004;2022-09-03T03:05:52;22.40;58.00
39969;DHT22;25648;47.808;19.004;2022-09-03T03:08:21;22.40;58.00
39969;DHT22;25648;47.808;19.004;2022-09-03T03:10:55;22.40;57.80
39969;DHT22;25648;47.808;19.004;2022-09-03T03:13:23;22.20;58.90
39969;DHT22;25648;47.808;19.004;2022-09-03T03:15:49;22.10;59.50
39969;DHT22;25648;47.808;19.004;2022-09-03T03:18:15;22.10;59.60
39969;DHT22;25648;47.808;19.004;2022-09-03T03:20:42;22.10;59.70
39969;DHT22;25648;47.808;19.004;2022-09-03T03:23:08;22.30;59.40
39969;DHT22;25648;47.808;19.004;2022-09-03T03:25:37;22.40;58.20
39969;DHT22;25648;47.808;19.004;2022-09-03T03:28:04;22.50;57.90
39969;DHT22;25648;47.808;19.004;2022-09-03T03:30:31;22.40;58.10
39969;DHT22;25648;47.808;19.004;2022-09-03T03:32:57;22.40;58.40
39969;DHT22;25648;47.808;19.004;2022-09-03T03:35:24;22.40;58.20
39969;DHT22;25648;47.808;19.004;2022-09-03T03:37:50;22.40;57.80
39969;DHT22;25648;47.808;19.004;2022-09-03T03:40:15;22.10;57.90
39969;DHT22;25648;47.808;19.004;2022-09-03T03:42:41;22.00;58.20
39969;DHT22;25648;47.808;19.004;2022-09-03T03:45:07;21.80;58.40
39969;DHT22;25648;47.808;19.004;2022-09-03T03:47:35;21.60;58.90
39969;DHT22;25648;47.808;19.004;2022-09-03T03:50:02;21.60;58.90
39969;DHT22;25648;47.808;19.004;2022-09-03T03:52:28;21.70;58.70
39969;DHT22;25648;47.808;19.004;2022-09-03T03:54:54;21.80;58.70
39969;DHT22;25648;47.808;19.004;2022-09-03T03:57:20;21.70;59.40
39969;DHT22;25648;47.808;19.004;2022-09-03T03:59:46;21.90;59.00
39969;DHT22;25648;47.808;19.004;2022-09-03T04:02:12;21.90;58.40
39969;DHT22;25648;47.808;19.004;2022-09-03T04:04:38;22.00;58.40
39969;DHT22;25648;47.808;19.004;2022-09-03T04:07:04;22.00;58.20
39969;DHT22;25648;47.808;19.004;2022-09-03T04:09:30;22.10;58.00
39969;DHT22;25648;47.808;19.004;2022-09-03T04:11:55;22.10;58.10
39969;DHT22;25648;47.808;19.004;2022-09-03T04:14:23;22.20;57.90
39969;DHT22;25648;47.808;19.004;2022-09-03T04:16:49;22.30;57.70
39969;DHT22;25648;47.808;19.004;2022-09-03T04:19:15;22.20;57.60
39969;DHT22;25648;47.808;19.004;2022-09-03T04:21:41;22.20;57.60
39969;DHT22;25648;47.808;19.004;2022-09-03T04:24:07;22.20;57.80
39969;DHT22;25648;47.808;19.004;2022-09-03T04:26:33;22.20;57.90
39969;DHT22;25648;47.808;19.004;2022-09-03T04:29:04;22.20;57.80
39969;DHT22;25648;47.808;19.004;2022-09-03T04:31:30;22.20;58.00
39969;DHT22;25648;47.808;19.004;2022-09-03T04:33:56;22.20;58.00
39969;DHT22;25648;47.808;19.004;2022-09-03T04:36:24;22.20;58.20
39969;DHT22;25648;47.808;19.004;2022-09-03T04:38:52;22.20;58.20
39969;DHT22;25648;47.808;19.004;2022-09-03T04:41:23;22.20;58.30
39969;DHT22;25648;47.808;19.004;2022-09-03T04:43:49;22.30;58.50
39969;DHT22;25648;47.808;19.004;2022-09-03T04:46:15;22.30;58.60
39969;DHT22;25648;47.808;19.004;2022-09-03T04:48:41;22.40;58.80
39969;DHT22;25648;47.808;19.004;2022-09-03T04:51:12;22.40;58.90
39969;DHT22;25648;47.808;19.004;2022-09-03T04:53:43;22.50;58.90
39969;DHT22;25648;47.808;19.004;2022-09-03T04:56:17;22.50;59.10
39969;DHT22;25648;47.808;19.004;2022-09-03T04:58:44;22.50;59.60
39969;DHT22;25648;47.808;19.004;2022-09-03T05:01:18;22.60;59.40
39969;DHT22;25648;47.808;19.004;2022-09-03T05:03:45;22.70;59.30
39969;DHT22;25648;47.808;19.004;2022-09-03T05:06:11;22.70;59.40
39969;DHT22;25648;47.808;19.004;2022-09-03T05:08:38;22.80;59.50
39969;DHT22;25648;47.808;19.004;2022-09-03T05:11:05;22.90;59.90
39969;DHT22;25648;47.808;19.004;2022-09-03T05:13:33;22.90;60.20
39969;DHT22;25648;47.808;19.004;2022-09-03T05:16:04;23.00;60.20
39969;DHT22;25648;47.808;19.004;2022-09-03T05:18:30;23.10;60.10
39969;DHT22;25648;47.808;19.004;2022-09-03T05:21:09;23.10;60.20
39969;DHT22;25648;47.808;19.004;2022-09-03T05:23:41;23.20;60.20
39969;DHT22;25648;47.808;19.004;2022-09-03T05:26:09;23.20;60.20
39969;DHT22;25648;47.808;19.004;2022-09-03T05:28:37;23.20;60.60
39969;DHT22;25648;47.808;19.004;2022-09-03T05:31:04;23.10;60.50
39969;DHT22;25648;47.808;19.004;2022-09-03T05:33:37;23.00;60.60
39969;DHT22;25648;47.808;19.004;2022-09-03T05:36:05;22.90;60.90
39969;DHT22;25648;47.808;19.004;2022-09-03T05:38:31;23.10;60.70
39969;DHT22;25648;47.808;19.004;2022-09-03T05:40:58;23.10;60.80
39969;DHT22;25648;47.808;19.004;2022-09-03T05:43:25;23.00;61.00
39969;DHT22;25648;47.808;19.004;2022-09-03T05:45:55;23.10;60.80
39969;DHT22;25648;47.808;19.004;2022-09-03T05:48:21;22.90;61.10
39969;DHT22;25648;47.808;19.004;2022-09-03T05:50:47;23.00;61.00
39969;DHT22;25648;47.808;19.004;2022-09-03T05:53:14;23.40;60.30
39969;DHT22;25648;47.808;19.004;2022-09-03T05:55:40;23.70;59.50
39969;DHT22;25648;47.808;19.004;2022-09-03T05:58:06;23.90;58.40
39969;DHT22;25648;47.808;19.004;2022-09-03T06:00:32;24.00;58.00
39969;DHT22;25648;47.808;19.004;2022-09-03T06:02:58;24.00;57.50
39969;DHT22;25648;47.808;19.004;2022-09-03T06:05:24;24.10;57.40
39969;DHT22;25648;47.808;19.004;2022-09-03T06:07:50;24.10;57.60
39969;DHT22;25648;47.808;19.004;2022-09-03T06:10:16;24.20;57.40
39969;DHT22;25648;47.808;19.004;2022-09-03T06:12:42;24.00;58.50
39969;DHT22;25648;47.808;19.004;2022-09-03T06:15:14;24.00;59.20
39969;DHT22;25648;47.808;19.004;2022-09-03T06:17:40;24.20;58.90
39969;DHT22;25648;47.808;19.004;2022-09-03T06:20:06;24.30;58.70
39969;DHT22;25648;47.808;19.004;2022-09-03T06:22:32;24.30;59.20
39969;DHT22;25648;47.808;19.004;2022-09-03T06:24:58;24.40;59.10
39969;DHT22;25648;47.808;19.004;2022-09-03T06:27:24;24.50;58.90
39969;DHT22;25648;47.808;19.004;2022-09-03T06:29:49;24.30;59.20
39969;DHT22;25648;47.808;19.004;2022-09-03T06:32:15;24.50;58.90
39969;DHT22;25648;47.808;19.004;2022-09-03T06:34:41;24.60;58.30
39969;DHT22;25648;47.808;19.004;2022-09-03T06:37:07;24.70;58.90
39969;DHT22;25648;47.808;19.004;2022-09-03T06:39:32;24.70;59.00
39969;DHT22;25648;47.808;19.004;2022-09-03T06:41:58;24.70;58.20
39969;DHT22;25648;47.808;19.004;2022-09-03T06:44:24;24.90;58.20
39969;DHT22;25648;47.808;19.004;2022-09-03T06:46:50;24.60;58.80
39969;DHT22;25648;47.808;19.004;2022-09-03T06:49:18;24.40;59.30
39969;DHT22;25648;47.808;19.004;2022-09-03T06:51:44;24.60;59.30
39969;DHT22;25648;47.808;19.004;2022-09-03T06:54:11;24.90;59.20
39969;DHT22;25648;47.808;19.004;2022-09-03T06:56:38;25.30;58.70
39969;DHT22;25648;47.808;19.004;2022-09-03T06:59:07;25.50;57.60
39969;DHT22;25648;47.808;19.004;2022-09-03T07:01:34;25.60;57.10
39969;DHT22;25648;47.808;19.004;2022-09-03T07:04:01;25.80;56.80
39969;DHT22;25648;47.808;19.004;2022-09-03T07:06:29;26.00;57.10
39969;DHT22;25648;47.808;19.004;2022-09-03T07:08:55;26.20;56.90
39969;DHT22;25648;47.808;19.004;2022-09-03T07:11:24;26.20;56.70
39969;DHT22;25648;47.808;19.004;2022-09-03T07:13:51;25.70;57.10
39969;DHT22;25648;47.808;19.004;2022-09-03T07:16:20;25.50;57.60
39969;DHT22;25648;47.808;19.004;2022-09-03T07:18:46;25.80;57.30
39969;DHT22;25648;47.808;19.004;2022-09-03T07:21:17;26.20;57.10
39969;DHT22;25648;47.808;19.004;2022-09-03T07:23:44;26.50;57.10
39969;DHT22;25648;47.808;19.004;2022-09-03T07:26:16;26.60;56.70
39969;DHT22;25648;47.808;19.004;2022-09-03T07:28:43;26.50;56.80
39969;DHT22;25648;47.808;19.004;2022-09-03T07:31:15;26.60;56.30
39969;DHT22;25648;47.808;19.004;2022-09-03T07:33:43;26.80;56.00
39969;DHT22;25648;47.808;19.004;2022-09-03T07:36:11;27.00;55.70
39969;DHT22;25648;47.808;19.004;2022-09-03T07:38:42;27.10;55.70
39969;DHT22;25648;47.808;19.004;2022-09-03T07:41:10;27.30;55.50
39969;DHT22;25648;47.808;19.004;2022-09-03T07:43:41;27.40;55.20
39969;DHT22;25648;47.808;19.004;2022-09-03T07:46:20;27.50;55.00
39969;DHT22;25648;47.808;19.004;2022-09-03T07:48:49;27.20;55.50
39969;DHT22;25648;47.808;19.004;2022-09-03T07:51:16;27.00;54.50
39969;DHT22;25648;47.808;19.004;2022-09-03T07:53:43;27.10;53.80
39969;DHT22;25648;47.808;19.004;2022-09-03T07:56:09;27.30;53.20
39969;DHT22;25648;47.808;19.004;2022-09-03T07:58:36;27.40;53.70
39969;DHT22;25648;47.808;19.004;2022-09-03T08:01:05;27.40;53.10
39969;DHT22;25648;47.808;19.004;2022-09-03T08:03:36;27.50;53.20
39969;DHT22;25648;47.808;19.004;2022-09-03T08:06:03;27.80;52.60
39969;DHT22;25648;47.808;19.004;2022-09-03T08:08:29;27.90;53.30
39969;DHT22;25648;47.808;19.004;2022-09-03T08:11:03;28.00;52.80
39969;DHT22;25648;47.808;19.004;2022-09-03T08:13:32;28.20;52.50
39969;DHT22;25648;47.808;19.004;2022-09-03T08:15:58;28.30;52.80
39969;DHT22;25648;47.808;19.004;2022-09-03T08:18:24;28.40;52.70
39969;DHT22;25648;47.808;19.004;2022-09-03T08:20:51;28.60;53.10
39969;DHT22;25648;47.808;19.004;2022-09-03T08:23:17;28.70;51.30
39969;DHT22;25648;47.808;19.004;2022-09-03T08:25:42;28.80;51.00
39969;DHT22;25648;47.808;19.004;2022-09-03T08:28:09;28.90;52.40
39969;DHT22;25648;47.808;19.004;2022-09-03T08:30:35;29.10;51.80
39969;DHT22;25648;47.808;19.004;2022-09-03T08:33:01;28.90;51.50
39969;DHT22;25648;47.808;19.004;2022-09-03T08:35:29;28.90;49.50
39969;DHT22;25648;47.808;19.004;2022-09-03T08:37:58;29.00;51.20
39969;DHT22;25648;47.808;19.004;2022-09-03T08:40:31;29.30;50.90
39969;DHT22;25648;47.808;19.004;2022-09-03T08:45:35;29.60;49.40
39969;DHT22;25648;47.808;19.004;2022-09-03T08:48:21;29.60;50.40
39969;DHT22;25648;47.808;19.004;2022-09-03T08:50:50;29.70;50.00
39969;DHT22;25648;47.808;19.004;2022-09-03T08:56:03;29.70;50.50
39969;DHT22;25648;47.808;19.004;2022-09-03T08:58:33;29.50;49.70
39969;DHT22;25648;47.808;19.004;2022-09-03T09:09:04;29.70;49.00
39969;DHT22;25648;47.808;19.004;2022-09-03T09:12:03;29.60;49.30
39969;DHT22;25648;47.808;19.004;2022-09-03T09:14:59;29.60;50.50
39969;DHT22;25648;47.808;19.004;2022-09-03T09:20:22;29.70;48.40
39969;DHT22;25648;47.808;19.004;2022-09-03T09:22:54;29.60;48.60
39969;DHT22;25648;47.808;19.004;2022-09-03T09:25:23;29.70;50.00
39969;DHT22;25648;47.808;19.004;2022-09-03T09:28:01;29.90;49.60
39969;DHT22;25648;47.808;19.004;2022-09-03T09:30:30;30.10;49.90
39969;DHT22;25648;47.808;19.004;2022-09-03T09:32:55;30.10;48.50
39969;DHT22;25648;47.808;19.004;2022-09-03T09:35:22;30.40;49.00
39969;DHT22;25648;47.808;19.004;2022-09-03T09:37:58;30.50;48.30
39969;DHT22;25648;47.808;19.004;2022-09-03T09:40:33;30.70;48.10
39969;DHT22;25648;47.808;19.004;2022-09-03T09:45:43;30.20;47.70
39969;DHT22;25648;47.808;19.004;2022-09-03T09:48:25;30.30;49.00
39969;DHT22;25648;47.808;19.004;2022-09-03T09:51:11;30.60;48.20
39969;DHT22;25648;47.808;19.004;2022-09-03T09:53:38;30.70;47.10
39969;DHT22;25648;47.808;19.004;2022-09-03T09:56:05;30.90;48.30
39969;DHT22;25648;47.808;19.004;2022-09-03T09:58:32;31.10;47.40
39969;DHT22;25648;47.808;19.004;2022-09-03T10:01:09;31.30;47.60
39969;DHT22;25648;47.808;19.004;2022-09-03T10:03:50;31.60;46.90
39969;DHT22;25648;47.808;19.004;2022-09-03T10:06:22;32.00;47.10
39969;DHT22;25648;47.808;19.004;2022-09-03T10:09:12;31.90;46.50
39969;DHT22;25648;47.808;19.004;2022-09-03T10:11:43;32.20;46.10
39969;DHT22;25648;47.808;19.004;2022-09-03T10:14:25;33.00;44.90
39969;DHT22;25648;47.808;19.004;2022-09-03T10:19:45;33.40;45.10
39969;DHT22;25648;47.808;19.004;2022-09-03T10:22:39;33.30;45.60
39969;DHT22;25648;47.808;19.004;2022-09-03T10:25:08;33.30;45.40
39969;DHT22;25648;47.808;19.004;2022-09-03T10:27:35;33.10;45.00
39969;DHT22;25648;47.808;19.004;2022-09-03T10:30:02;32.80;45.60
39969;DHT22;25648;47.808;19.004;2022-09-03T10:40:38;31.70;46.40
39969;DHT22;25648;47.808;19.004;2022-09-03T10:48:47;31.00;48.70
39969;DHT22;25648;47.808;19.004;2022-09-03T10:51:38;30.70;48.90
39969;DHT22;25648;47.808;19.004;2022-09-03T10:59:35;31.50;48.50
39969;DHT22;25648;47.808;19.004;2022-09-03T11:05:08;31.30;48.50
39969;DHT22;25648;47.808;19.004;2022-09-03T11:07:45;30.90;49.90
39969;DHT22;25648;47.808;19.004;2022-09-03T11:10:30;30.30;48.70
39969;DHT22;25648;47.808;19.004;2022-09-03T11:13:19;30.10;49.40
39969;DHT22;25648;47.808;19.004;2022-09-03T11:16:02;30.20;48.10
39969;DHT22;25648;47.808;19.004;2022-09-03T11:18:35;30.40;47.80
39969;DHT22;25648;47.808;19.004;2022-09-03T11:21:05;30.60;49.10
39969;DHT22;25648;47.808;19.004;2022-09-03T11:23:39;30.60;48.60
39969;DHT22;25648;47.808;19.004;2022-09-03T11:26:09;30.80;48.90
39969;DHT22;25648;47.808;19.004;2022-09-03T11:31:25;30.70;48.90
39969;DHT22;25648;47.808;19.004;2022-09-03T11:34:25;30.60;48.10
39969;DHT22;25648;47.808;19.004;2022-09-03T11:36:51;30.60;47.30
39969;DHT22;25648;47.808;19.004;2022-09-03T11:39:33;30.60;47.70
39969;DHT22;25648;47.808;19.004;2022-09-03T11:44:51;30.80;47.40
39969;DHT22;25648;47.808;19.004;2022-09-03T11:47:45;30.70;48.10
39969;DHT22;25648;47.808;19.004;2022-09-03T11:50:31;30.50;48.00
39969;DHT22;25648;47.808;19.004;2022-09-03T11:53:31;30.40;47.90
39969;DHT22;25648;47.808;19.004;2022-09-03T11:56:08;30.60;49.10
39969;DHT22;25648;47.808;19.004;2022-09-03T11:58:38;30.80;49.50
39969;DHT22;25648;47.808;19.004;2022-09-03T12:01:13;30.60;48.70
39969;DHT22;25648;47.808;19.004;2022-09-03T12:04:02;30.50;50.00
39969;DHT22;25648;47.808;19.004;2022-09-03T12:19:52;30.10;49.10
39969;DHT22;25648;47.808;19.004;2022-09-03T12:22:21;30.20;48.10
39969;DHT22;25648;47.808;19.004;2022-09-03T12:24:47;30.00;49.20
39969;DHT22;25648;47.808;19.004;2022-09-03T12:27:24;29.80;49.60
39969;DHT22;25648;47.808;19.004;2022-09-03T12:30:02;29.80;49.10
39969;DHT22;25648;47.808;19.004;2022-09-03T12:32:30;29.60;49.30
39969;DHT22;25648;47.808;19.004;2022-09-03T12:34:57;29.60;49.10
39969;DHT22;25648;47.808;19.004;2022-09-03T12:37:25;29.80;49.60
39969;DHT22;25648;47.808;19.004;2022-09-03T12:39:52;30.00;49.40
39969;DHT22;25648;47.808;19.004;2022-09-03T12:42:26;29.90;50.20
39969;DHT22;25648;47.808;19.004;2022-09-03T12:44:53;30.10;49.80
39969;DHT22;25648;47.808;19.004;2022-09-03T12:47:21;30.30;48.30
39969;DHT22;25648;47.808;19.004;2022-09-03T12:49:55;30.40;47.90
39969;DHT22;25648;47.808;19.004;2022-09-03T12:55:35;30.50;47.80
39969;DHT22;25648;47.808;19.004;2022-09-03T13:00:34;30.70;48.30
39969;DHT22;25648;47.808;19.004;2022-09-03T13:03:02;30.80;47.60
39969;DHT22;25648;47.808;19.004;2022-09-03T13:05:44;30.90;47.30
39969;DHT22;25648;47.808;19.004;2022-09-03T13:08:26;30.90;47.30
39969;DHT22;25648;47.808;19.004;2022-09-03T13:10:56;31.10;46.90
39969;DHT22;25648;47.808;19.004;2022-09-03T13:13:31;31.30;47.80
39969;DHT22;25648;47.808;19.004;2022-09-03T13:19:03;31.40;46.30
39969;DHT22;25648;47.808;19.004;2022-09-03T13:24:49;31.60;45.50
39969;DHT22;25648;47.808;19.004;2022-09-03T13:30:13;31.80;46.30
39969;DHT22;25648;47.808;19.004;2022-09-03T13:35:33;31.80;45.90
39969;DHT22;25648;47.808;19.004;2022-09-03T13:41:02;31.30;46.60
39969;DHT22;25648;47.808;19.004;2022-09-03T13:43:35;31.50;46.40
39969;DHT22;25648;47.808;19.004;2022-09-03T13:46:05;31.60;47.20
39969;DHT22;25648;47.808;19.004;2022-09-03T13:48:42;31.70;46.20
39969;DHT22;25648;47.808;19.004;2022-09-03T13:51:39;31.70;46.70
39969;DHT22;25648;47.808;19.004;2022-09-03T13:59:39;31.80;45.80
39969;DHT22;25648;47.808;19.004;2022-09-03T14:02:19;31.90;45.00
39969;DHT22;25648;47.808;19.004;2022-09-03T14:07:34;32.00;45.80
39969;DHT22;25648;47.808;19.004;2022-09-03T14:13:27;31.90;45.40
39969;DHT22;25648;47.808;19.004;2022-09-03T14:24:25;31.70;46.20
39969;DHT22;25648;47.808;19.004;2022-09-03T14:27:00;31.60;46.10
39969;DHT22;25648;47.808;19.004;2022-09-03T14:29:34;31.60;46.20
39969;DHT22;25648;47.808;19.004;2022-09-03T14:32:23;31.70;46.40
39969;DHT22;25648;47.808;19.004;2022-09-03T14:37:47;31.00;45.00
39969;DHT22;25648;47.808;19.004;2022-09-03T14:40:25;31.10;45.20
39969;DHT22;25648;47.808;19.004;2022-09-03T14:49:03;31.00;44.80
39969;DHT22;25648;47.808;19.004;2022-09-03T14:54:26;30.60;45.50
39969;DHT22;25648;47.808;19.004;2022-09-03T15:00:04;30.60;46.40
39969;DHT22;25648;47.808;19.004;2022-09-03T15:13:21;31.30;47.20
39969;DHT22;25648;47.808;19.004;2022-09-03T15:18:56;31.40;47.30
39969;DHT22;25648;47.808;19.004;2022-09-03T15:35:09;31.60;45.40
39969;DHT22;25648;47.808;19.004;2022-09-03T15:37:44;31.60;45.40
39969;DHT22;25648;47.808;19.004;2022-09-03T15:40:28;31.60;44.70
39969;DHT22;25648;47.808;19.004;2022-09-03T15:43:24;31.20;44.50
39969;DHT22;25648;47.808;19.004;2022-09-03T15:48:59;31.00;46.10
39969;DHT22;25648;47.808;19.004;2022-09-03T15:51:32;31.30;46.10
39969;DHT22;25648;47.808;19.004;2022-09-03T16:02:14;31.40;46.80
39969;DHT22;25648;47.808;19.004;2022-09-03T16:10:21;31.20;47.70
39969;DHT22;25648;47.808;19.004;2022-09-03T16:15:22;30.90;49.90
39969;DHT22;25648;47.808;19.004;2022-09-03T16:18:02;31.00;50.90
39969;DHT22;25648;47.808;19.004;2022-09-03T16:20:47;31.00;51.10
39969;DHT22;25648;47.808;19.004;2022-09-03T16:28:19;30.90;50.20
39969;DHT22;25648;47.808;19.004;2022-09-03T16:31:10;30.90;50.60
39969;DHT22;25648;47.808;19.004;2022-09-03T16:47:06;30.50;54.10
39969;DHT22;25648;47.808;19.004;2022-09-03T16:52:31;30.30;53.60
39969;DHT22;25648;47.808;19.004;2022-09-03T17:00:20;29.80;52.40
39969;DHT22;25648;47.808;19.004;2022-09-03T17:21:30;29.50;54.40
39969;DHT22;25648;47.808;19.004;2022-09-03T17:26:53;29.20;55.10
39969;DHT22;25648;47.808;19.004;2022-09-03T17:29:29;29.10;55.10
39969;DHT22;25648;47.808;19.004;2022-09-03T17:40:24;28.90;55.10
39969;DHT22;25648;47.808;19.004;2022-09-03T17:43:16;28.80;55.20
39969;DHT22;25648;47.808;19.004;2022-09-03T17:51:04;28.10;55.50
39969;DHT22;25648;47.808;19.004;2022-09-03T17:53:38;28.10;55.50
39969;DHT22;25648;47.808;19.004;2022-09-03T17:56:19;28.00;55.70
39969;DHT22;25648;47.808;19.004;2022-09-03T18:01:36;27.90;55.30
39969;DHT22;25648;47.808;19.004;2022-09-03T18:07:22;27.70;55.60
39969;DHT22;25648;47.808;19.004;2022-09-03T18:15:51;27.10;57.10
39969;DHT22;25648;47.808;19.004;2022-09-03T18:18:31;26.90;57.30
39969;DHT22;25648;47.808;19.004;2022-09-03T18:21:00;27.00;57.10
39969;DHT22;25648;47.808;19.004;2022-09-03T18:23:53;27.10;56.90
39969;DHT22;25648;47.808;19.004;2022-09-03T18:26:57;27.00;57.50
39969;DHT22;25648;47.808;19.004;2022-09-03T18:29:44;26.60;58.30
39969;DHT22;25648;47.808;19.004;2022-09-03T18:32:29;26.70;58.00
39969;DHT22;25648;47.808;19.004;2022-09-03T18:35:13;26.80;57.50
39969;DHT22;25648;47.808;19.004;2022-09-03T18:37:57;26.80;57.20
39969;DHT22;25648;47.808;19.004;2022-09-03T18:41:14;26.90;57.10
39969;DHT22;25648;47.808;19.004;2022-09-03T18:50:12;26.80;57.90
39969;DHT22;25648;47.808;19.004;2022-09-03T18:53:16;26.80;57.20
39969;DHT22;25648;47.808;19.004;2022-09-03T18:56:09;26.50;57.90
39969;DHT22;25648;47.808;19.004;2022-09-03T19:02:13;26.60;57.60
39969;DHT22;25648;47.808;19.004;2022-09-03T19:05:16;26.50;57.30
39969;DHT22;25648;47.808;19.004;2022-09-03T19:08:23;26.50;57.30
39969;DHT22;25648;47.808;19.004;2022-09-03T19:11:30;26.50;57.30
39969;DHT22;25648;47.808;19.004;2022-09-03T19:20:30;25.20;59.50
39969;DHT22;25648;47.808;19.004;2022-09-03T19:23:15;25.30;58.80
39969;DHT22;25648;47.808;19.004;2022-09-03T19:26:05;25.50;58.80
39969;DHT22;25648;47.808;19.004;2022-09-03T19:28:56;25.70;58.30
39969;DHT22;25648;47.808;19.004;2022-09-03T19:31:57;25.60;58.70
39969;DHT22;25648;47.808;19.004;2022-09-03T19:40:51;25.80;57.80
39969;DHT22;25648;47.808;19.004;2022-09-03T19:46:55;25.90;57.60
39969;DHT22;25648;47.808;19.004;2022-09-03T19:49:57;25.80;57.60
39969;DHT22;25648;47.808;19.004;2022-09-03T19:53:00;25.70;57.60
39969;DHT22;25648;47.808;19.004;2022-09-03T19:55:49;25.70;57.60
39969;DHT22;25648;47.808;19.004;2022-09-03T19:58:39;25.70;57.60
39969;DHT22;25648;47.808;19.004;2022-09-03T20:01:28;25.60;57.70
39969;DHT22;25648;47.808;19.004;2022-09-03T20:04:15;25.60;57.90
39969;DHT22;25648;47.808;19.004;2022-09-03T20:07:02;25.60;57.50
39969;DHT22;25648;47.808;19.004;2022-09-03T20:09:49;25.70;57.40
39969;DHT22;25648;47.808;19.004;2022-09-03T20:12:42;25.60;57.40
39969;DHT22;25648;47.808;19.004;2022-09-03T20:15:10;25.50;57.40
39969;DHT22;25648;47.808;19.004;2022-09-03T20:23:34;25.30;57.50
39969;DHT22;25648;47.808;19.004;2022-09-03T20:34:34;24.90;57.90
39969;DHT22;25648;47.808;19.004;2022-09-03T20:37:23;24.70;57.60
39969;DHT22;25648;47.808;19.004;2022-09-03T20:48:20;25.00;57.40
39969;DHT22;25648;47.808;19.004;2022-09-03T20:51:16;25.00;57.50
39969;DHT22;25648;47.808;19.004;2022-09-03T20:54:18;25.20;56.70
39969;DHT22;25648;47.808;19.004;2022-09-03T21:00:02;25.00;57.80
39969;DHT22;25648;47.808;19.004;2022-09-03T21:21:23;24.90;56.90
39969;DHT22;25648;47.808;19.004;2022-09-03T21:24:15;24.90;57.00
39969;DHT22;25648;47.808;19.004;2022-09-03T21:26:46;24.80;57.20
39969;DHT22;25648;47.808;19.004;2022-09-03T21:29:30;24.80;57.30
39969;DHT22;25648;47.808;19.004;2022-09-03T21:32:19;24.80;57.20
39969;DHT22;25648;47.808;19.004;2022-09-03T21:34:57;24.90;57.30
39969;DHT22;25648;47.808;19.004;2022-09-03T21:37:34;25.00;57.10
39969;DHT22;25648;47.808;19.004;2022-09-03T21:39:59;25.00;56.70
39969;DHT22;25648;47.808;19.004;2022-09-03T21:51:17;24.60;57.40
39969;DHT22;25648;47.808;19.004;2022-09-03T22:04:24;24.30;57.80
39969;DHT22;25648;47.808;19.004;2022-09-03T22:14:48;23.80;58.60
39969;DHT22;25648;47.808;19.004;2022-09-03T22:17:29;23.60;58.70
39969;DHT22;25648;47.808;19.004;2022-09-03T22:19:58;23.70;58.60
39969;DHT22;25648;47.808;19.004;2022-09-03T22:22:39;23.60;58.80
39969;DHT22;25648;47.808;19.004;2022-09-03T22:25:19;23.50;59.10